Time;durP1;ratioP1;P1;durP2;ratioP2;P2;SDS_P1;SDS_P2;PMS_P1;PMS_P2;Temp;Humidity;BMP_temperature;BMP_pressure;BME280_temperature;BME280_humidity;BME280_pressure;Samples;Min_cycle;Max_cycle;Signal;HPM_P1;HPM_P2
2022/05/20 00:00:27;;;;;;;21.13;11.80;;;;;;;;;;4976213;28;20397;-76
2022/05/20 00:02:54;;;;;;;19.52;11.60;;;;;;;;;;4958602;28;20034;-76
2022/05/20 00:05:20;;;;;;;21.08;11.75;;;;;;;;;;4975898;28;20799;-75
2022/05/20 00:07:46;;;;;;;22.48;12.85;;;;;;;;;;4976117;28;20031;-75
2022/05/20 00:10:15;;;;;;;17.20;10.27;;;;;;;;;;4958388;28;20027;-76
2022/05/20 00:12:41;;;;;;;21.60;11.60;;;;;;;;;;4976037;28;20035;-76
2022/05/20 00:15:09;;;;;;;19.83;11.55;;;;;;;;;;4975985;28;20374;-76
2022/05/20 00:17:35;;;;;;;18.35;11.48;;;;;;;;;;4975880;28;20034;-76
2022/05/20 00:20:01;;;;;;;19.77;11.70;;;;;;;;;;4975717;28;20034;-76
2022/05/20 00:22:28;;;;;;;21.75;12.02;;;;;;;;;;4975667;28;20027;-75
2022/05/20 00:27:38;;;;;;;16.90;10.63;;;;;;;;;;4975836;28;20053;-76
2022/05/20 00:30:05;;;;;;;21.75;12.15;;;;;;;;;;4975616;28;20030;-76
2022/05/20 00:32:31;;;;;;;16.38;10.95;;;;;;;;;;4975489;28;20371;-76
2022/05/20 00:34:57;;;;;;;20.02;11.35;;;;;;;;;;4975520;28;20027;-76
2022/05/20 00:37:23;;;;;;;21.10;12.07;;;;;;;;;;4975327;28;20807;-76
2022/05/20 00:39:49;;;;;;;20.95;12.57;;;;;;;;;;4975516;28;20034;-75
2022/05/20 00:42:17;;;;;;;27.67;13.73;;;;;;;;;;4975271;28;20038;-76
2022/05/20 00:44:43;;;;;;;21.52;12.45;;;;;;;;;;4975025;28;20057;-76
2022/05/20 00:47:11;;;;;;;21.45;12.65;;;;;;;;;;4974912;28;20089;-75
2022/05/20 00:49:37;;;;;;;23.30;12.48;;;;;;;;;;4974724;28;20046;-76
2022/05/20 00:52:05;;;;;;;19.25;12.32;;;;;;;;;;4974783;28;20061;-76
2022/05/20 00:54:34;;;;;;;20.75;12.38;;;;;;;;;;4974621;28;20026;-75
2022/05/20 00:57:04;;;;;;;22.42;13.32;;;;;;;;;;4972022;28;20421;-75
2022/05/20 00:59:31;;;;;;;19.38;12.20;;;;;;;;;;4973816;28;20031;-76
2022/05/20 01:02:01;;;;;;;20.50;11.38;;;;;;;;;;4974664;28;20031;-75
2022/05/20 01:04:27;;;;;;;20.40;11.75;;;;;;;;;;4974408;28;20019;-76
2022/05/20 01:06:53;;;;;;;20.42;11.60;;;;;;;;;;4974507;28;20023;-76
2022/05/20 01:09:19;;;;;;;21.40;11.65;;;;;;;;;;4971862;28;20046;-76
2022/05/20 01:11:45;;;;;;;22.20;12.20;;;;;;;;;;4974358;28;20034;-75
2022/05/20 01:14:18;;;;;;;23.27;13.13;;;;;;;;;;4974327;28;20050;-76
2022/05/20 01:16:44;;;;;;;20.38;12.05;;;;;;;;;;4972329;28;20018;-76
2022/05/20 01:19:14;;;;;;;21.27;12.20;;;;;;;;;;4974643;28;20051;-75
2022/05/20 01:21:40;;;;;;;18.50;11.90;;;;;;;;;;4956991;28;20470;-76
2022/05/20 01:24:07;;;;;;;20.15;12.63;;;;;;;;;;4955114;29;20069;-75
2022/05/20 01:26:33;;;;;;;21.73;12.75;;;;;;;;;;4955235;29;20030;-76
2022/05/20 01:28:59;;;;;;;18.15;11.85;;;;;;;;;;4955212;29;20050;-75
2022/05/20 01:31:25;;;;;;;20.83;12.68;;;;;;;;;;4955679;29;20358;-75
2022/05/20 01:33:52;;;;;;;24.58;13.57;;;;;;;;;;4955565;29;20113;-76
2022/05/20 01:36:20;;;;;;;22.05;13.88;;;;;;;;;;4955515;29;20031;-75
2022/05/20 01:38:47;;;;;;;22.25;13.02;;;;;;;;;;4955624;29;20546;-75
2022/05/20 01:41:21;;;;;;;22.48;13.70;;;;;;;;;;4955391;29;20024;-76
2022/05/20 01:43:59;;;;;;;24.10;12.50;;;;;;;;;;4955318;29;20046;-75
2022/05/20 01:46:34;;;;;;;21.58;12.43;;;;;;;;;;4955329;29;20047;-75
2022/05/20 01:49:07;;;;;;;22.35;12.73;;;;;;;;;;4955351;29;20019;-76
2022/05/20 01:51:37;;;;;;;22.45;13.32;;;;;;;;;;4955116;29;20042;-76
2022/05/20 01:54:08;;;;;;;24.30;13.23;;;;;;;;;;4955072;29;20092;-75
2022/05/20 01:56:37;;;;;;;26.90;13.75;;;;;;;;;;4955015;29;20070;-75
2022/05/20 01:59:08;;;;;;;26.85;14.75;;;;;;;;;;4955012;29;20474;-75
2022/05/20 02:01:38;;;;;;;26.65;15.07;;;;;;;;;;4971064;28;20425;-75
2022/05/20 02:04:24;;;;;;;24.10;13.80;;;;;;;;;;4973816;28;20033;-75
2022/05/20 02:06:55;;;;;;;18.63;12.70;;;;;;;;;;4972757;28;20030;-75
2022/05/20 02:09:24;;;;;;;22.17;13.43;;;;;;;;;;4971541;28;20381;-75
2022/05/20 02:11:55;;;;;;;23.52;13.15;;;;;;;;;;4973698;28;20023;-75
2022/05/20 02:14:27;;;;;;;21.83;12.50;;;;;;;;;;4971537;28;20043;-75
2022/05/20 02:17:14;;;;;;;19.65;12.45;;;;;;;;;;4973576;28;20490;-75
2022/05/20 02:19:44;;;;;;;20.77;12.07;;;;;;;;;;4971228;28;20035;-75
2022/05/20 02:22:16;;;;;;;21.65;12.32;;;;;;;;;;4973469;28;20023;-75
2022/05/20 02:24:42;;;;;;;24.63;12.63;;;;;;;;;;4971582;28;20485;-76
2022/05/20 02:27:12;;;;;;;20.50;12.20;;;;;;;;;;4973788;28;20470;-75
2022/05/20 02:29:40;;;;;;;19.58;12.68;;;;;;;;;;4973755;28;20046;-76
2022/05/20 02:32:19;;;;;;;22.20;12.43;;;;;;;;;;4973870;28;20031;-76
2022/05/20 02:34:45;;;;;;;20.02;11.95;;;;;;;;;;4974018;28;20078;-76
2022/05/20 02:37:19;;;;;;;21.73;12.35;;;;;;;;;;4973819;28;20736;-76
2022/05/20 02:39:45;;;;;;;27.45;14.80;;;;;;;;;;4973708;28;20082;-76
2022/05/20 02:42:12;;;;;;;22.13;12.50;;;;;;;;;;4973651;28;20485;-76
2022/05/20 02:44:38;;;;;;;22.52;12.68;;;;;;;;;;4973459;28;20089;-76
2022/05/20 02:47:04;;;;;;;20.13;12.95;;;;;;;;;;4973631;28;20070;-75
2022/05/20 02:49:30;;;;;;;24.63;14.43;;;;;;;;;;4973566;28;20037;-76
2022/05/20 02:51:56;;;;;;;22.60;13.60;;;;;;;;;;4973461;28;20022;-76
2022/05/20 02:54:22;;;;;;;22.33;13.73;;;;;;;;;;4955919;28;20357;-76
2022/05/20 02:56:48;;;;;;;27.88;14.23;;;;;;;;;;4973662;28;20436;-75
2022/05/20 03:04:47;;;;;;;22.10;13.20;;;;;;;;;;4973317;28;20074;-75
2022/05/20 03:07:16;;;;;;;26.40;14.30;;;;;;;;;;4973235;28;20027;-75
2022/05/20 03:09:42;;;;;;;20.95;12.65;;;;;;;;;;4955812;28;20030;-74
2022/05/20 03:12:08;;;;;;;23.20;12.90;;;;;;;;;;4973261;28;20042;-75
2022/05/20 03:14:34;;;;;;;22.23;13.00;;;;;;;;;;4973256;28;20023;-75
2022/05/20 03:17:01;;;;;;;20.90;12.55;;;;;;;;;;4973205;28;20105;-75
2022/05/20 03:19:30;;;;;;;25.02;12.93;;;;;;;;;;4973103;28;20042;-75
2022/05/20 03:21:58;;;;;;;23.42;13.10;;;;;;;;;;4972963;28;20031;-75
2022/05/20 03:24:24;;;;;;;23.60;12.82;;;;;;;;;;4972667;28;20123;-75
2022/05/20 03:26:50;;;;;;;23.70;12.98;;;;;;;;;;4972971;28;20042;-75
2022/05/20 03:29:17;;;;;;;22.77;12.38;;;;;;;;;;4973122;28;20338;-75
2022/05/20 03:31:43;;;;;;;23.17;12.95;;;;;;;;;;4973122;28;20117;-75
2022/05/20 03:34:10;;;;;;;22.30;12.68;;;;;;;;;;4973054;28;20062;-75
2022/05/20 03:36:43;;;;;;;21.83;12.88;;;;;;;;;;4973043;28;20106;-75
2022/05/20 03:39:10;;;;;;;21.65;12.75;;;;;;;;;;4973014;28;20089;-75
2022/05/20 03:41:37;;;;;;;25.15;13.93;;;;;;;;;;4972922;28;20381;-75
2022/05/20 03:44:04;;;;;;;22.00;13.35;;;;;;;;;;4972683;28;20027;-75
2022/05/20 03:46:31;;;;;;;31.52;15.15;;;;;;;;;;4972673;28;20449;-75
2022/05/20 03:48:57;;;;;;;25.05;13.57;;;;;;;;;;4972923;28;20042;-75
2022/05/20 03:51:23;;;;;;;23.70;13.85;;;;;;;;;;4972858;28;20105;-75
2022/05/20 03:53:49;;;;;;;26.90;14.90;;;;;;;;;;4972623;28;20058;-76
2022/05/20 03:56:16;;;;;;;24.75;13.85;;;;;;;;;;4972733;28;20031;-76
2022/05/20 03:58:42;;;;;;;23.85;12.50;;;;;;;;;;4972738;28;20039;-75
2022/05/20 04:03:55;;;;;;;21.95;13.07;;;;;;;;;;4971692;28;20400;-75
2022/05/20 04:06:21;;;;;;;23.83;12.82;;;;;;;;;;4972480;28;20019;-75
2022/05/20 04:08:47;;;;;;;22.52;12.90;;;;;;;;;;4972305;28;20037;-75
2022/05/20 04:11:13;;;;;;;27.48;14.20;;;;;;;;;;4972103;28;20030;-75
2022/05/20 04:13:40;;;;;;;22.45;12.93;;;;;;;;;;4969524;28;20019;-75
2022/05/20 04:16:06;;;;;;;26.92;12.90;;;;;;;;;;4972163;28;20387;-75
2022/05/20 04:18:32;;;;;;;24.10;13.13;;;;;;;;;;4972490;28;20422;-75
2022/05/20 04:20:59;;;;;;;23.33;12.75;;;;;;;;;;4971288;28;20030;-75
2022/05/20 04:23:25;;;;;;;20.33;12.15;;;;;;;;;;4972156;28;20023;-75
2022/05/20 04:25:51;;;;;;;24.73;12.80;;;;;;;;;;4972126;28;20034;-75
2022/05/20 04:28:17;;;;;;;19.52;11.82;;;;;;;;;;4954651;28;20445;-75
2022/05/20 04:30:43;;;;;;;19.95;11.75;;;;;;;;;;4972271;28;20074;-75
2022/05/20 04:33:10;;;;;;;17.17;11.73;;;;;;;;;;4972120;28;20062;-75
2022/05/20 04:35:36;;;;;;;19.20;11.32;;;;;;;;;;4973660;28;20452;-76
2022/05/20 04:38:03;;;;;;;20.33;11.15;;;;;;;;;;4975668;28;20113;-75
2022/05/20 04:40:29;;;;;;;17.85;10.82;;;;;;;;;;4975512;28;20362;-75
2022/05/20 04:48:26;;;;;;;19.27;11.73;;;;;;;;;;4973626;28;20089;-75
2022/05/20 04:50:54;;;;;;;18.90;12.00;;;;;;;;;;4975164;28;20426;-76
2022/05/20 04:56:05;;;;;;;25.20;13.60;;;;;;;;;;4973175;28;20061;-75
2022/05/20 04:58:31;;;;;;;24.27;12.27;;;;;;;;;;4975132;28;20023;-75
2022/05/20 05:00:58;;;;;;;17.98;11.90;;;;;;;;;;4957762;28;20030;-75
2022/05/20 05:03:24;;;;;;;17.40;11.93;;;;;;;;;;4974985;28;20039;-75
2022/05/20 05:05:50;;;;;;;20.02;11.98;;;;;;;;;;4974894;28;20031;-75
2022/05/20 05:08:17;;;;;;;23.02;13.43;;;;;;;;;;4975112;28;20401;-75
2022/05/20 05:10:43;;;;;;;20.52;13.15;;;;;;;;;;4974750;28;20101;-75
2022/05/20 05:13:10;;;;;;;16.48;11.40;;;;;;;;;;4974869;28;20030;-75
2022/05/20 05:15:36;;;;;;;19.08;13.10;;;;;;;;;;4974812;28;20034;-75
2022/05/20 05:18:12;;;;;;;19.80;13.50;;;;;;;;;;4974894;28;20031;-76
2022/05/20 05:20:50;;;;;;;19.50;11.85;;;;;;;;;;4974987;28;20407;-78
2022/05/20 05:23:16;;;;;;;22.70;13.02;;;;;;;;;;4973772;28;20757;-75
2022/05/20 05:25:43;;;;;;;23.20;13.65;;;;;;;;;;4973086;28;20034;-75
2022/05/20 05:28:09;;;;;;;25.65;14.63;;;;;;;;;;4975063;28;20023;-75
2022/05/20 05:30:35;;;;;;;20.13;13.55;;;;;;;;;;4974878;28;20093;-75
2022/05/20 05:33:01;;;;;;;24.90;14.88;;;;;;;;;;4974875;28;20117;-75
2022/05/20 05:35:29;;;;;;;26.83;15.25;;;;;;;;;;4974659;28;20144;-76
2022/05/20 05:37:55;;;;;;;24.92;14.68;;;;;;;;;;4974849;28;20035;-76
2022/05/20 05:40:23;;;;;;;27.85;15.02;;;;;;;;;;4974698;28;20075;-76
2022/05/20 05:42:49;;;;;;;25.63;14.63;;;;;;;;;;4974703;28;20768;-75
2022/05/20 05:45:17;;;;;;;24.42;14.55;;;;;;;;;;4974112;28;20050;-75
2022/05/20 05:47:43;;;;;;;23.88;14.60;;;;;;;;;;4974460;28;20038;-75
2022/05/20 05:50:09;;;;;;;25.50;13.32;;;;;;;;;;4974403;28;20034;-75
2022/05/20 05:52:35;;;;;;;18.50;13.20;;;;;;;;;;4974538;28;20045;-75
2022/05/20 05:55:02;;;;;;;23.40;14.60;;;;;;;;;;4964881;28;20042;-76
2022/05/20 05:57:31;;;;;;;20.70;13.57;;;;;;;;;;4973897;28;20547;-77
2022/05/20 05:59:57;;;;;;;22.63;13.45;;;;;;;;;;4973426;28;20568;-77
2022/05/20 06:02:24;;;;;;;22.83;13.40;;;;;;;;;;4972165;28;20058;-75
2022/05/20 06:04:51;;;;;;;21.00;12.88;;;;;;;;;;4973809;28;20026;-76
2022/05/20 06:07:18;;;;;;;21.52;12.40;;;;;;;;;;4973853;28;20022;-77
2022/05/20 06:09:45;;;;;;;21.10;12.73;;;;;;;;;;4973658;28;20011;-77
2022/05/20 06:12:12;;;;;;;31.13;13.10;;;;;;;;;;4973489;28;20248;-77
2022/05/20 06:14:38;;;;;;;19.00;12.05;;;;;;;;;;4972519;28;20019;-77
2022/05/20 06:17:05;;;;;;;19.48;12.55;;;;;;;;;;4959485;28;20039;-77
2022/05/20 06:19:31;;;;;;;17.92;11.05;;;;;;;;;;4954619;28;20042;-77
2022/05/20 06:21:57;;;;;;;20.35;10.95;;;;;;;;;;4954782;29;20122;-76
2022/05/20 06:24:23;;;;;;;15.73;10.75;;;;;;;;;;4965330;28;20030;-76
2022/05/20 06:26:49;;;;;;;14.50;9.63;;;;;;;;;;4973572;28;20335;-76
2022/05/20 06:29:15;;;;;;;18.92;9.35;;;;;;;;;;4973373;28;20505;-76
2022/05/20 06:31:42;;;;;;;15.93;9.90;;;;;;;;;;4973475;28;20542;-76
2022/05/20 06:34:08;;;;;;;16.95;9.90;;;;;;;;;;4970905;28;20031;-76
2022/05/20 06:40:19;;;;;;;15.63;9.43;;;;;;;;;;4972208;28;20108;-76
2022/05/20 06:42:14;;;;;;;15.60;9.70;;;;;;;;;;4956101;28;20122;-76
2022/05/20 06:44:40;;;;;;;19.90;10.32;;;;;;;;;;4973095;28;20488;-76
2022/05/20 06:47:06;;;;;;;13.57;9.05;;;;;;;;;;4973165;28;20026;-76
2022/05/20 06:49:32;;;;;;;18.80;10.10;;;;;;;;;;4973087;28;20019;-76
2022/05/20 06:52:00;;;;;;;12.05;8.75;;;;;;;;;;4970482;28;20037;-76
2022/05/20 06:54:27;;;;;;;16.27;9.35;;;;;;;;;;4972763;28;20027;-77
2022/05/20 06:56:53;;;;;;;15.98;9.00;;;;;;;;;;4972994;28;20058;-76
2022/05/20 06:59:19;;;;;;;14.75;7.95;;;;;;;;;;4955129;28;20029;-76
2022/05/20 07:01:45;;;;;;;16.65;8.57;;;;;;;;;;4972963;28;20093;-76
2022/05/20 07:04:11;;;;;;;13.93;8.27;;;;;;;;;;4972800;28;20031;-76
2022/05/20 07:06:38;;;;;;;14.80;8.38;;;;;;;;;;4972943;28;20019;-76
2022/05/20 07:09:05;;;;;;;13.57;8.38;;;;;;;;;;4972874;28;20023;-77
2022/05/20 07:11:31;;;;;;;14.93;9.05;;;;;;;;;;4972820;28;20121;-76
2022/05/20 07:13:58;;;;;;;10.05;7.30;;;;;;;;;;4972808;28;20034;-76
2022/05/20 07:16:25;;;;;;;14.98;7.72;;;;;;;;;;4955239;28;20373;-76
2022/05/20 07:18:51;;;;;;;11.65;7.00;;;;;;;;;;4972541;28;20121;-76
2022/05/20 07:21:17;;;;;;;11.30;6.63;;;;;;;;;;4972280;28;20094;-75
2022/05/20 07:23:43;;;;;;;13.75;6.32;;;;;;;;;;4972839;28;20039;-75
2022/05/20 07:26:10;;;;;;;11.48;6.15;;;;;;;;;;4972872;28;20031;-76
2022/05/20 07:28:36;;;;;;;9.70;6.88;;;;;;;;;;4972681;28;20034;-75
2022/05/20 07:31:03;;;;;;;13.57;6.05;;;;;;;;;;4972912;28;20027;-75
2022/05/20 07:33:30;;;;;;;10.55;5.90;;;;;;;;;;4972079;28;20062;-77
2022/05/20 07:35:56;;;;;;;11.98;5.78;;;;;;;;;;4972685;28;20118;-76
2022/05/20 07:38:22;;;;;;;9.35;5.30;;;;;;;;;;4955528;28;20035;-76
2022/05/20 07:40:50;;;;;;;8.38;5.35;;;;;;;;;;4972718;28;20031;-76
2022/05/20 07:43:20;;;;;;;8.95;5.40;;;;;;;;;;4972995;28;20027;-77
2022/05/20 07:45:46;;;;;;;7.65;4.68;;;;;;;;;;4971625;28;20047;-74
2022/05/20 07:48:12;;;;;;;8.70;4.93;;;;;;;;;;4971290;28;20077;-75
2022/05/20 07:50:42;;;;;;;11.55;5.07;;;;;;;;;;4971454;28;20018;-76
2022/05/20 07:53:21;;;;;;;10.43;4.70;;;;;;;;;;4968754;28;20030;-76
2022/05/20 07:55:53;;;;;;;8.38;4.50;;;;;;;;;;4971251;28;20109;-76
2022/05/20 07:58:22;;;;;;;7.88;4.18;;;;;;;;;;4972406;28;20031;-76
2022/05/20 08:00:48;;;;;;;9.63;4.18;;;;;;;;;;4972333;28;20022;-76
2022/05/20 08:04:52;;;;;;;7.18;3.50;;;;;;;;;;4972254;28;20034;-74
2022/05/20 08:06:00;;;;;;;8.13;3.47;;;;;;;;;;4970217;28;20030;-74
2022/05/20 08:08:26;;;;;;;7.25;3.03;;;;;;;;;;4972897;28;20074;-75
2022/05/20 08:10:52;;;;;;;8.65;3.00;;;;;;;;;;4976400;28;20027;-75
2022/05/20 08:13:21;;;;;;;7.90;3.20;;;;;;;;;;4958702;28;20030;-75
2022/05/20 08:15:47;;;;;;;5.45;3.13;;;;;;;;;;4975807;28;20026;-75
2022/05/20 08:18:17;;;;;;;5.82;2.95;;;;;;;;;;4976238;28;20046;-74
2022/05/20 08:20:43;;;;;;;6.28;2.63;;;;;;;;;;4966125;28;20027;-74
2022/05/20 08:23:09;;;;;;;4.93;2.90;;;;;;;;;;4956338;29;20030;-76
2022/05/20 08:25:36;;;;;;;9.10;3.00;;;;;;;;;;4955807;29;20114;-75
2022/05/20 08:28:03;;;;;;;6.82;2.90;;;;;;;;;;4956480;29;20031;-75
2022/05/20 08:30:29;;;;;;;6.43;2.92;;;;;;;;;;4939147;29;20403;-75
2022/05/20 08:32:55;;;;;;;8.05;2.50;;;;;;;;;;4962124;28;20027;-75
2022/05/20 08:35:21;;;;;;;6.55;2.30;;;;;;;;;;4975814;28;20045;-75
2022/05/20 08:37:48;;;;;;;10.82;2.70;;;;;;;;;;4975852;28;20023;-75
2022/05/20 08:40:19;;;;;;;9.73;2.40;;;;;;;;;;4975445;28;20039;-75
2022/05/20 08:42:45;;;;;;;5.47;2.50;;;;;;;;;;4975827;28;20045;-73
2022/05/20 08:45:13;;;;;;;6.55;2.30;;;;;;;;;;4975425;28;20043;-75
2022/05/20 08:47:44;;;;;;;5.95;2.20;;;;;;;;;;4975750;28;20027;-75
2022/05/20 08:50:13;;;;;;;7.43;2.33;;;;;;;;;;4975483;28;20121;-75
2022/05/20 08:52:39;;;;;;;5.70;2.08;;;;;;;;;;4975883;28;20023;-75
2022/05/20 08:55:06;;;;;;;8.68;2.10;;;;;;;;;;4975216;28;20030;-75
2022/05/20 08:57:33;;;;;;;5.32;2.20;;;;;;;;;;4975699;28;20038;-76
2022/05/20 09:00:00;;;;;;;12.32;2.17;;;;;;;;;;4975468;28;20070;-75
2022/05/20 09:02:26;;;;;;;5.55;1.98;;;;;;;;;;4971574;28;20370;-75
2022/05/20 09:04:52;;;;;;;4.63;1.77;;;;;;;;;;4969512;28;20477;-75
2022/05/20 09:07:20;;;;;;;5.20;1.63;;;;;;;;;;4965303;28;20019;-75
2022/05/20 09:10:01;;;;;;;5.35;1.80;;;;;;;;;;4973678;28;20022;-75
2022/05/20 09:12:27;;;;;;;7.45;1.98;;;;;;;;;;4974837;28;20398;-75
2022/05/20 09:17:46;;;;;;;8.35;2.00;;;;;;;;;;4972239;28;20458;-75
2022/05/20 09:20:18;;;;;;;6.32;1.45;;;;;;;;;;4973988;28;20023;-75
2022/05/20 09:23:02;;;;;;;8.93;1.52;;;;;;;;;;4972085;28;20031;-75
2022/05/20 09:25:30;;;;;;;2.72;1.10;;;;;;;;;;4972318;28;20148;-75
2022/05/20 09:28:13;;;;;;;5.53;1.45;;;;;;;;;;4956823;28;20081;-75
2022/05/20 09:30:39;;;;;;;4.72;1.40;;;;;;;;;;4965105;28;20022;-75
2022/05/20 09:33:15;;;;;;;3.08;1.30;;;;;;;;;;4964243;28;20030;-77
2022/05/20 09:35:46;;;;;;;4.60;1.38;;;;;;;;;;4960919;28;20042;-75
2022/05/20 09:38:30;;;;;;;5.35;1.25;;;;;;;;;;4955523;29;20050;-75
2022/05/20 09:40:56;;;;;;;3.53;1.40;;;;;;;;;;4938111;29;20043;-75
2022/05/20 09:43:27;;;;;;;5.43;1.80;;;;;;;;;;4955449;29;20122;-75
2022/05/20 09:45:54;;;;;;;7.30;1.90;;;;;;;;;;4955261;29;20043;-75
2022/05/20 09:48:24;;;;;;;6.47;1.42;;;;;;;;;;4965194;28;20031;-75
2022/05/20 09:51:09;;;;;;;5.45;2.05;;;;;;;;;;4970050;28;20097;-76
2022/05/20 09:53:37;;;;;;;3.15;1.67;;;;;;;;;;4967858;28;20355;-76
2022/05/20 09:56:22;;;;;;;2.50;1.70;;;;;;;;;;4970645;28;20030;-75
2022/05/20 09:59:07;;;;;;;7.70;1.92;;;;;;;;;;4972538;28;20081;-76
2022/05/20 10:01:33;;;;;;;6.78;2.00;;;;;;;;;;4970868;28;20485;-76
2022/05/20 10:04:02;;;;;;;5.20;1.90;;;;;;;;;;4974195;28;20025;-74
2022/05/20 10:06:36;;;;;;;4.70;1.88;;;;;;;;;;4974271;28;20062;-75
2022/05/20 10:09:21;;;;;;;6.38;2.15;;;;;;;;;;4974105;28;20018;-74
2022/05/20 10:11:47;;;;;;;7.90;1.80;;;;;;;;;;4955781;28;20353;-75
2022/05/20 10:14:25;;;;;;;4.13;1.83;;;;;;;;;;4973528;28;20506;-75
2022/05/20 10:16:57;;;;;;;6.13;2.05;;;;;;;;;;4973648;28;20034;-75
2022/05/20 10:19:32;;;;;;;4.18;1.95;;;;;;;;;;4973683;28;20022;-75
2022/05/20 10:22:04;;;;;;;8.82;2.17;;;;;;;;;;4971997;28;20022;-75
2022/05/20 10:24:46;;;;;;;4.05;2.05;;;;;;;;;;4948955;28;20034;-75
2022/05/20 10:27:22;;;;;;;8.57;2.53;;;;;;;;;;4963336;28;20438;-75
2022/05/20 10:33:01;;;;;;;5.88;2.30;;;;;;;;;;4973788;28;20077;-75
2022/05/20 10:35:43;;;;;;;5.80;2.17;;;;;;;;;;4973538;28;20073;-75
2022/05/20 10:38:09;;;;;;;;;;;;;;;;;;4974147;28;20470;-75
2022/05/20 10:40:35;;;;;;;4.22;1.50;;;;;;;;;;4973584;28;19961;-75
2022/05/20 10:43:01;;;;;;;7.28;2.20;;;;;;;;;;4973790;28;20022;-75
2022/05/20 10:48:34;;;;;;;3.15;1.90;;;;;;;;;;4973644;28;20122;-75
2022/05/20 10:51:04;;;;;;;4.80;2.10;;;;;;;;;;4954287;29;20016;-75
2022/05/20 10:53:42;;;;;;;6.07;2.33;;;;;;;;;;4960512;28;20029;-75
2022/05/20 10:56:26;;;;;;;4.05;1.88;;;;;;;;;;4972962;28;20539;-75
2022/05/20 10:58:58;;;;;;;8.18;2.28;;;;;;;;;;4970967;28;20594;-75
2022/05/20 11:01:25;;;;;;;;;;;;;;;;;;4969778;28;20030;-74
2022/05/20 11:04:10;;;;;;;4.07;2.10;;;;;;;;;;4971824;28;19924;-76
2022/05/20 11:06:49;;;;;;;7.47;2.45;;;;;;;;;;4971893;28;20058;-76
2022/05/20 11:09:15;;;;;;;5.47;2.80;;;;;;;;;;4971741;28;20110;-74
2022/05/20 11:11:41;;;;;;;8.73;2.53;;;;;;;;;;4972904;28;20470;-76
2022/05/20 11:14:26;;;;;;;4.65;2.45;;;;;;;;;;4973095;28;20031;-76
2022/05/20 11:17:10;;;;;;;7.72;2.25;;;;;;;;;;4973162;28;20030;-76
2022/05/20 11:20:11;;;;;;;7.88;2.47;;;;;;;;;;4973013;28;20027;-75
2022/05/20 11:22:43;;;;;;;5.13;2.90;;;;;;;;;;4887547;29;20031;-76
2022/05/20 11:25:09;;;;;;;;;;;;;;;;;;4880930;29;20420;-74
2022/05/20 11:27:45;;;;;;;7.25;2.92;;;;;;;;;;4888384;29;19998;-76
2022/05/20 11:30:11;;;;;;;10.45;3.08;;;;;;;;;;4894471;29;20049;-76
2022/05/20 11:32:37;;;;;;;6.25;2.97;;;;;;;;;;4887836;29;20025;-76
2022/05/20 11:35:10;;;;;;;8.05;3.80;;;;;;;;;;4885584;29;20036;-77
2022/05/20 11:37:53;;;;;;;6.70;3.25;;;;;;;;;;4883175;29;20060;-74
2022/05/20 11:40:49;;;;;;;8.65;3.78;;;;;;;;;;4886267;29;20044;-75
2022/05/20 11:43:15;;;;;;;10.48;4.10;;;;;;;;;;4873607;29;20089;-74
2022/05/20 11:45:59;;;;;;;6.68;3.55;;;;;;;;;;4878889;29;20465;-74
2022/05/20 11:48:39;;;;;;;6.07;3.53;;;;;;;;;;4879046;29;20037;-75
2022/05/20 11:51:14;;;;;;;13.38;4.65;;;;;;;;;;4877319;29;20427;-75
2022/05/20 11:53:56;;;;;;;7.00;3.83;;;;;;;;;;4879234;29;20033;-75
2022/05/20 11:56:51;;;;;;;5.95;3.75;;;;;;;;;;4901709;29;20130;-77
2022/05/20 11:59:17;;;;;;;4.75;3.05;;;;;;;;;;4897873;29;20064;-77
2022/05/20 12:01:49;;;;;;;9.20;3.20;;;;;;;;;;4897981;29;20024;-77
2022/05/20 12:04:17;;;;;;;9.82;3.30;;;;;;;;;;4897323;29;20116;-75
2022/05/20 12:07:04;;;;;;;5.20;2.63;;;;;;;;;;4897596;29;20044;-77
2022/05/20 12:09:32;;;;;;;6.13;2.80;;;;;;;;;;4897777;29;20111;-77
2022/05/20 12:12:13;;;;;;;9.68;3.00;;;;;;;;;;4897462;29;20033;-75
2022/05/20 12:15:11;;;;;;;8.73;3.25;;;;;;;;;;4897783;29;20086;-75
2022/05/20 12:17:44;;;;;;;7.82;3.45;;;;;;;;;;4878431;29;20089;-75
2022/05/20 12:25:51;;;;;;;9.23;3.80;;;;;;;;;;4841313;29;20089;-75
2022/05/20 12:28:23;;;;;;;10.23;3.35;;;;;;;;;;4841282;29;20026;-75
2022/05/20 12:31:08;;;;;;;9.93;4.15;;;;;;;;;;4841239;29;20485;-75
2022/05/20 12:33:49;;;;;;;8.52;3.85;;;;;;;;;;4841122;29;20053;-77
2022/05/20 12:36:33;;;;;;;10.85;4.45;;;;;;;;;;4841494;29;20137;-78
2022/05/20 12:39:08;;;;;;;10.32;4.75;;;;;;;;;;4844405;29;20033;-78
2022/05/20 12:41:39;;;;;;;11.00;6.03;;;;;;;;;;4859589;29;20084;-78
2022/05/20 12:44:14;;;;;;;20.45;6.72;;;;;;;;;;4859456;29;20412;-77
2022/05/20 12:46:58;;;;;;;15.98;7.22;;;;;;;;;;4869231;29;20057;-77
2022/05/20 12:49:27;;;;;;;12.77;7.65;;;;;;;;;;4876690;29;20092;-79
2022/05/20 12:51:54;;;;;;;11.88;7.97;;;;;;;;;;4878520;29;20021;-79
2022/05/20 12:54:20;;;;;;;15.93;7.65;;;;;;;;;;4952808;29;20039;-77
2022/05/20 12:56:46;;;;;;;13.40;7.60;;;;;;;;;;4954924;28;20058;-77
2022/05/20 12:59:13;;;;;;;16.02;8.80;;;;;;;;;;4956323;28;20028;-77
2022/05/20 13:01:43;;;;;;;22.38;9.52;;;;;;;;;;4956445;28;20023;-76
2022/05/20 13:04:12;;;;;;;24.23;10.15;;;;;;;;;;4956071;28;20047;-77
2022/05/20 13:06:38;;;;;;;26.05;10.77;;;;;;;;;;4956164;28;20027;-77
2022/05/20 13:09:08;;;;;;;19.25;10.32;;;;;;;;;;4954047;28;20047;-77
2022/05/20 13:11:44;;;;;;;19.20;11.35;;;;;;;;;;4953292;29;20023;-77
2022/05/20 13:14:14;;;;;;;20.95;11.57;;;;;;;;;;4955700;28;20059;-77
2022/05/20 13:16:41;;;;;;;18.55;11.07;;;;;;;;;;4955781;28;20351;-77
2022/05/20 13:19:14;;;;;;;18.48;11.13;;;;;;;;;;4955967;28;20027;-77
2022/05/20 13:21:43;;;;;;;18.27;10.63;;;;;;;;;;4955357;28;20466;-77
2022/05/20 13:24:16;;;;;;;19.73;10.93;;;;;;;;;;4955388;28;20416;-76
2022/05/20 13:26:43;;;;;;;19.13;11.07;;;;;;;;;;4955631;28;20043;-76
2022/05/20 13:29:14;;;;;;;16.90;10.70;;;;;;;;;;4955830;28;20030;-76
2022/05/20 13:31:40;;;;;;;21.58;11.60;;;;;;;;;;4955682;28;20020;-76
2022/05/20 13:34:06;;;;;;;20.60;11.45;;;;;;;;;;4955048;28;20078;-76
2022/05/20 13:36:41;;;;;;;21.85;12.07;;;;;;;;;;4955097;28;20457;-75
2022/05/20 13:39:07;;;;;;;25.30;11.95;;;;;;;;;;4955056;28;20090;-76
2022/05/20 13:41:34;;;;;;;20.08;12.23;;;;;;;;;;4955081;28;20032;-76
2022/05/20 13:44:01;;;;;;;18.90;12.00;;;;;;;;;;4955014;28;20515;-76
2022/05/20 13:49:25;;;;;;;24.00;14.23;;;;;;;;;;4970110;28;20054;-76
2022/05/20 13:51:53;;;;;;;23.73;13.38;;;;;;;;;;4971705;28;20034;-76
2022/05/20 13:54:32;;;;;;;25.92;14.20;;;;;;;;;;4973629;28;20027;-77
2022/05/20 13:56:59;;;;;;;24.25;13.65;;;;;;;;;;4958237;28;20057;-77
2022/05/20 13:59:31;;;;;;;25.40;13.60;;;;;;;;;;4963221;28;20026;-76
2022/05/20 14:02:03;;;;;;;29.17;14.40;;;;;;;;;;4962794;28;20023;-76
2022/05/20 14:04:49;;;;;;;23.65;13.48;;;;;;;;;;4971779;28;20034;-77
2022/05/20 14:07:28;;;;;;;26.52;14.55;;;;;;;;;;4957870;28;20482;-77
2022/05/20 14:09:58;;;;;;;23.63;13.68;;;;;;;;;;4972259;28;20496;-77
2022/05/20 14:12:27;;;;;;;24.30;14.30;;;;;;;;;;4974143;28;20027;-77
2022/05/20 14:14:57;;;;;;;25.88;14.65;;;;;;;;;;4973519;28;20019;-77
2022/05/20 14:17:23;;;;;;;23.48;14.50;;;;;;;;;;4973748;28;20035;-77
2022/05/20 14:19:50;;;;;;;31.00;16.52;;;;;;;;;;4971699;28;20030;-77
2022/05/20 14:22:18;;;;;;;34.25;17.92;;;;;;;;;;4955906;28;20125;-76
2022/05/20 14:24:49;;;;;;;31.23;16.88;;;;;;;;;;4973438;28;20027;-76
2022/05/20 14:27:29;;;;;;;30.92;16.83;;;;;;;;;;4973611;28;20713;-76
2022/05/20 14:30:14;;;;;;;36.97;19.50;;;;;;;;;;4969981;28;20033;-76
2022/05/20 14:32:40;;;;;;;32.13;16.45;;;;;;;;;;4962039;28;20055;-77
2022/05/20 14:35:07;;;;;;;25.83;13.55;;;;;;;;;;4961911;28;20038;-75
2022/05/20 14:37:33;;;;;;;30.60;14.40;;;;;;;;;;4962282;28;20474;-75
2022/05/20 14:40:09;;;;;;;19.65;11.40;;;;;;;;;;4964458;28;20034;-75
2022/05/20 14:42:46;;;;;;;15.95;9.60;;;;;;;;;;4964626;28;20541;-75
2022/05/20 14:45:16;;;;;;;15.10;9.07;;;;;;;;;;4961878;28;20035;-75
2022/05/20 14:47:44;;;;;;;19.08;10.63;;;;;;;;;;4963728;28;20047;-75
2022/05/20 14:50:16;;;;;;;14.93;9.93;;;;;;;;;;4962490;28;20023;-75
2022/05/20 14:52:56;;;;;;;15.07;9.00;;;;;;;;;;4970983;28;20440;-76
2022/05/20 14:55:26;;;;;;;16.25;8.63;;;;;;;;;;4970731;28;20106;-75
2022/05/20 14:58:11;;;;;;;17.42;9.32;;;;;;;;;;4973057;28;20027;-78
2022/05/20 15:00:51;;;;;;;13.85;9.00;;;;;;;;;;4970553;28;20128;-75
2022/05/20 15:03:17;;;;;;;16.23;9.43;;;;;;;;;;4968928;28;20417;-76
2022/05/20 15:05:43;;;;;;;19.70;10.57;;;;;;;;;;4973196;28;20047;-75
2022/05/20 15:08:11;;;;;;;17.90;10.77;;;;;;;;;;4973241;28;20026;-78
2022/05/20 15:10:37;;;;;;;18.58;10.65;;;;;;;;;;4973067;28;20049;-77
2022/05/20 15:13:03;;;;;;;28.52;12.77;;;;;;;;;;4973157;28;20512;-75
2022/05/20 15:15:29;;;;;;;21.30;12.32;;;;;;;;;;4973091;28;20042;-76
2022/05/20 15:18:03;;;;;;;23.90;12.70;;;;;;;;;;4973006;28;20129;-76
2022/05/20 15:20:31;;;;;;;23.13;13.38;;;;;;;;;;4972672;28;20065;-77
2022/05/20 15:22:57;;;;;;;20.85;12.32;;;;;;;;;;4955611;28;20019;-78